KPHT/PHT METAR and TAF weather

Enter ICAO airport designator
Station Type Date Time Source
KPHT METAR 2019/04/25 16:15 UTC NOAA

KPHT 251615Z AUTO 19016KT 170V230 10SM SCT027 BKN037 OVC043 22/16 A2974 RMK A01


Station Type Date Time Source
KPHT Decoded METAR 2019/04/25 16:15 UTC NOAA

Station name not available
Apr 25, 2019 - 12:15 PM EDT / 2019.04.25 1615 UTC
Wind: from the S (190 degrees) at 18 MPH (16 KT) (direction variable):0
Visibility: 10 mile(s):0
Sky conditions: overcast
Temperature: 71 F (22 C)
Dew Point: 60 F (16 C)
Relative Humidity: 68%
Pressure (altimeter): 29.74 in. Hg (1007 hPa)
ob: KPHT 251615Z AUTO 19016KT 170V230 10SM SCT027 BKN037 OVC043 22/16 A2974 RMK A01
cycle: 16

Station Type Date Time Source
KPHT TAF UTC NOAA

Error!

Example: see airport list